CheckWX is a tool to help pilots better visualize weather data.  It is not intended as a substitute for an official pre-flight weather briefing.

09:19:25 UTC

LFMO METAR
Orange-Caritat (BA 115) Air Base Airport
Orange/Caritat, France
Current

19 mins ago

LFMO 230900Z AUTO VRB03KT CAVOK 31/20 Q1019 NOSIG
Observed
Jul-23 @ 09:00 UTC
Wind
  • Variable at 3 KTS
Visibility
10,000+ meters
Flight Rules
VFR
Cloud Levels
  • Clear skies
Temperature
31°C / 88°F
Dewpoint
20°C / 68°F
Heat Index
33°C / 92°F
Humidity
52%
Altimeter
30.09" Hg
Pressure
1018.92 hPa
Previous

49 mins ago

LFMO 230830Z AUTO VRB02KT CAVOK 30/20 Q1019 NOSIG
Observed
Jul-23 @ 08:30 UTC
Wind
  • Variable at 2 KTS
Visibility
10,000+ meters
Flight Rules
VFR
Cloud Levels
  • Clear skies
Temperature
30°C / 86°F
Dewpoint
20°C / 68°F
Heat Index
32°C / 89°F
Humidity
55%
Altimeter
30.09" Hg
Pressure
1018.92 hPa
Previous

1 hour ago

LFMO 230800Z AUTO VRB02KT CAVOK 29/20 Q1019 NOSIG
Observed
Jul-23 @ 08:00 UTC
Wind
  • Variable at 2 KTS
Visibility
10,000+ meters
Flight Rules
VFR
Cloud Levels
  • Clear skies
Temperature
29°C / 84°F
Dewpoint
20°C / 68°F
Heat Index
31°C / 87°F
Humidity
58%
Altimeter
30.09" Hg
Pressure
1018.92 hPa